Terminal Aerodrome Forecast
Issued by NWS

Home | Current Version | Previous Version | Graphics & Text | Print | Product List | Glossary On
Versions: 1 2 3 4 5 6 7 8 9 10 11 12 13 14
170
FTUS43 KGRB 100213 AAA
TAFMTW
TAF AMD
KMTW 100213Z 1002/1024 33014G24KT P6SM -SN OVC045
      TEMPO 1002/1006 4SM -SN BKN020
     FM100600 32014G22KT P6SM BKN040
      TEMPO 1009/1012 SCT040
     FM101400 32012G20KT P6SM OVC050=

USA.gov is the U.S. government's official web portal to all federal, state and local government web resources and services.